Airfield :
LOGIN :

Register | Disclaimer

   EN    FR    IT 

 










Legend :    VFR   Marginal VFR   IFR   Intensive IFR   Very Intensive IFR
Visi :
Ceiling :
>= 8 km
>= 3000ft
5 to 8 km
1000 to 3000 ft
1500m to 5 km
500 to 1000 ft
800 to 1500m
200 to 500 ft
< 800m
< 200 ft
Symbols :   Thunderstorms  Fog  Heavy snow  Heavy precipitations  Wind > 20 kt
SIGMETs :     Misc.  Thunderstorms  Icing  Turbulence  Mountain Waves  Volcanic Ashes







- Airport Elevation : 844 ft
- IATA code : OSR


LKMT - Ostrava-Mosnov

CURRENT METAR :
  • 160530Z VRB02KT CAVOK 06/03 Q1021 NOSIG

EXPIRED METARs :
  • 160500Z VRB02KT CAVOK 09/02 Q1020 NOSIG
  • 160430Z 04003KT 340V100 CAVOK 07/03 Q1020 NOSIG
  • 160400Z VRB02KT CAVOK 09/02 Q1020 NOSIG
  • 160330Z VRB03KT CAVOK 09/03 Q1020 NOSIG
  • 160300Z VRB01KT CAVOK 06/03 Q1021 NOSIG

TAF TAF LKMT
Valid from the 16 at 06:00 until the 17 at 12:00 UTC


160500Z 1606/1712 VRB02KT CAVOK
BECMG 1606/1608 23008KT
BECMG 1622/1700 VRB02KT
BECMG 1710/1712 25005KT
No reported NOTAMs for that airfield.



MET'MAP, your aeronautical weather chart ! - Copyright ORBIFLY December 2007 - Disclaimer

ORBIFLY MET'MAP TEAM :

Programming & Development : Alexandra Zaïnal
Concept & Development : Baudouin d'Aumeries
Co-Development & Prog : Marc-Olivier Méhu
Technical & hardware support : Manuel Goepfert

Contact : metmap@orbifly.com




SOURCES & CREDITS :

   NOAA